createdAt,value
2022-12-03T00:01:28.824Z,101489.06
2022-12-03T00:04:33.584Z,101488.81
2022-12-03T00:07:38.361Z,101495.75
2022-12-03T00:10:44.704Z,101501.03
2022-12-03T00:13:48.372Z,101500.78
2022-12-03T00:16:52.000Z,101506.31
2022-12-03T00:19:55.309Z,101498.84
2022-12-03T00:22:58.248Z,101505.41
2022-12-03T00:26:00.674Z,101501.94
2022-12-03T00:29:03.896Z,101509.66
2022-12-03T00:32:07.496Z,101512.22
2022-12-03T00:35:11.084Z,101511.31
2022-12-03T00:38:14.770Z,101513.50
2022-12-03T00:41:17.507Z,101514.53
2022-12-03T00:44:20.312Z,101523.28
2022-12-03T00:47:23.341Z,101517.87
2022-12-03T00:50:26.013Z,101520.47
2022-12-03T00:53:28.872Z,101515.56
2022-12-03T00:56:31.318Z,101522.38
2022-12-03T00:59:34.563Z,101515.69
2022-12-03T01:02:37.184Z,101518.28
2022-12-03T01:05:40.448Z,101515.81
2022-12-03T01:08:44.625Z,101515.56
2022-12-03T01:11:47.462Z,101522.00
2022-12-03T01:14:50.776Z,101518.41
2022-12-03T01:17:54.407Z,101520.44
2022-12-03T01:20:57.143Z,101514.66
2022-12-03T01:24:00.586Z,101511.06
2022-12-03T01:27:03.104Z,101514.66
2022-12-03T01:30:07.731Z,101517.22
2022-12-03T01:33:10.493Z,101519.94
2022-12-03T01:36:13.806Z,101521.34
2022-12-03T01:39:16.664Z,101524.31
2022-12-03T01:42:45.878Z,101516.59
2022-12-03T01:45:48.338Z,101521.47
2022-12-03T01:48:56.080Z,101519.16
2022-12-03T01:51:59.286Z,101515.97
2022-12-03T01:55:06.068Z,101525.06
2022-12-03T01:58:12.875Z,101518.13
2022-12-03T02:01:18.414Z,101525.06
2022-12-03T02:04:23.646Z,101524.31
2022-12-03T02:07:32.614Z,101517.47
2022-12-03T02:10:37.916Z,101520.06
2022-12-03T02:13:41.346Z,101513.28
2022-12-03T02:16:45.946Z,101509.16
2022-12-03T02:19:49.648Z,101515.69
2022-12-03T02:22:55.274Z,101511.44
2022-12-03T02:25:58.436Z,101510.69
2022-12-03T02:29:02.580Z,101516.88
2022-12-03T02:32:05.811Z,101504.78
2022-12-03T02:35:17.080Z,101507.59
2022-12-03T02:38:26.119Z,101502.31
2022-12-03T02:41:49.085Z,101510.19
2022-12-03T02:44:53.102Z,101515.31
2022-12-03T02:48:00.472Z,101515.06
2022-12-03T02:51:07.936Z,101516.09
2022-12-03T02:54:11.977Z,101522.91
2022-12-03T02:57:16.778Z,101510.94
2022-12-03T03:00:20.214Z,101515.44
2022-12-03T03:03:26.926Z,101515.19
2022-12-03T03:06:29.637Z,101513.91
2022-12-03T03:09:33.905Z,101522.41
2022-12-03T03:12:39.450Z,101517.91
2022-12-03T03:15:44.558Z,101519.81
2022-12-03T03:18:48.945Z,101513.66
2022-12-03T03:21:53.629Z,101517.12
2022-12-03T03:24:56.528Z,101517.91
2022-12-03T03:27:59.579Z,101516.75
2022-12-03T03:31:05.058Z,101514.28
2022-12-03T03:34:09.611Z,101515.84
2022-12-03T03:37:12.780Z,101521.13
2022-12-03T03:40:16.033Z,101521.00
2022-12-03T03:43:21.721Z,101521.13
2022-12-03T03:46:25.319Z,101520.34
2022-12-03T03:49:29.763Z,101529.09
2022-12-03T03:52:33.039Z,101521.25
2022-12-03T03:55:39.415Z,101521.72
2022-12-03T03:58:42.967Z,101516.88
2022-12-03T04:01:46.395Z,101506.44
2022-12-03T04:04:50.319Z,101512.22
2022-12-03T04:07:54.243Z,101513.88
2022-12-03T04:11:16.028Z,101515.56
2022-12-03T04:14:18.434Z,101512.47
2022-12-03T04:17:22.570Z,101521.37
2022-12-03T04:20:25.512Z,101518.03
2022-12-03T04:23:31.005Z,101517.63
2022-12-03T04:26:52.905Z,101522.00
2022-12-03T04:29:56.210Z,101523.44
2022-12-03T04:33:18.283Z,101531.53
2022-12-03T04:36:25.925Z,101535.63
2022-12-03T04:39:29.130Z,101534.09
2022-12-03T04:42:33.560Z,101531.38
2022-12-03T04:45:36.438Z,101540.38
2022-12-03T04:48:40.867Z,101540.53
2022-12-03T04:51:44.249Z,101528.69
2022-12-03T04:54:47.410Z,101529.19
2022-12-03T04:57:50.765Z,101523.03
2022-12-03T05:00:53.762Z,101528.16
2022-12-03T05:03:56.345Z,101530.22
2022-12-03T05:07:00.837Z,101532.28
2022-12-03T05:10:08.587Z,101531.78
2022-12-03T05:13:13.837Z,101536.41
2022-12-03T05:16:18.142Z,101536.53
2022-12-03T05:19:42.069Z,101537.44
2022-12-03T05:22:45.657Z,101537.69
2022-12-03T05:25:48.701Z,101537.56
2022-12-03T05:28:51.346Z,101544.78
2022-12-03T05:31:56.775Z,101544.00
2022-12-03T05:34:59.968Z,101548.50
2022-12-03T05:38:03.135Z,101547.59
2022-12-03T05:41:26.062Z,101552.88
2022-12-03T05:44:29.409Z,101558.41
2022-12-03T05:47:32.054Z,101564.47
2022-12-03T05:50:38.038Z,101567.28
2022-12-03T05:53:49.762Z,101568.56
2022-12-03T05:56:52.738Z,101578.34
2022-12-03T05:59:55.981Z,101572.31
2022-12-03T06:03:00.843Z,101559.56
2022-12-03T06:06:05.273Z,101558.81
2022-12-03T06:09:09.713Z,101544.12
2022-12-03T06:12:13.237Z,101554.44
2022-12-03T06:15:26.625Z,101555.19
2022-12-03T06:18:33.071Z,101551.84
2022-12-03T06:21:36.613Z,101557.12
2022-12-03T06:24:41.066Z,101557.12
2022-12-03T06:27:44.873Z,101552.13
2022-12-03T06:30:48.701Z,101544.41
2022-12-03T06:33:53.573Z,101553.13
2022-12-03T06:36:57.962Z,101550.06
2022-12-03T06:40:06.553Z,101556.47
2022-12-03T06:43:11.994Z,101554.69
2022-12-03T06:46:26.705Z,101550.44
2022-12-03T06:49:30.459Z,101542.19
2022-12-03T06:52:35.729Z,101543.50
2022-12-03T06:55:41.094Z,101559.84
2022-12-03T06:58:48.955Z,101562.69
2022-12-03T07:01:53.588Z,101568.87
2022-12-03T07:04:57.425Z,101570.03
2022-12-03T07:08:03.686Z,101556.25
2022-12-03T07:11:31.737Z,101557.41
2022-12-03T07:14:41.285Z,101563.69
2022-12-03T07:17:52.050Z,101558.81
2022-12-03T07:20:55.843Z,101576.56
2022-12-03T07:24:00.056Z,101564.47
2022-12-03T07:27:06.108Z,101567.16
2022-12-03T07:30:15.550Z,101571.00
2022-12-03T07:33:32.523Z,101581.81
2022-12-03T07:36:45.847Z,101589.69
2022-12-03T07:39:58.527Z,101579.25
2022-12-03T07:43:09.542Z,101581.16
2022-12-03T07:46:13.879Z,101576.91
2022-12-03T07:49:20.333Z,101573.38
2022-12-03T07:52:26.096Z,101566.72
2022-12-03T07:55:48.411Z,101566.16
2022-12-03T07:58:57.991Z,101559.81
2022-12-03T08:02:16.813Z,101561.19
2022-12-03T08:05:26.923Z,101565.03
2022-12-03T08:08:38.029Z,101557.12
2022-12-03T08:11:45.267Z,101569.50
2022-12-03T08:14:57.759Z,101581.09
2022-12-03T08:18:27.894Z,101582.41
2022-12-03T08:21:36.572Z,101592.66
2022-12-03T08:24:39.999Z,101593.56
2022-12-03T08:27:44.675Z,101588.41
2022-12-03T08:31:14.592Z,101584.53
2022-12-03T08:34:22.633Z,101584.12
2022-12-03T08:37:30.335Z,101576.91
2022-12-03T08:40:37.593Z,101573.69
2022-12-03T08:43:50.404Z,101574.94
2022-12-03T08:47:03.471Z,101578.91
2022-12-03T08:50:41.597Z,101580.91
2022-12-03T08:53:48.885Z,101594.44
2022-12-03T08:57:01.898Z,101591.25
2022-12-03T09:00:21.546Z,101602.00
2022-12-03T09:03:34.013Z,101596.84
2022-12-03T09:06:51.762Z,101610.03
2022-12-03T09:10:05.731Z,101608.19
2022-12-03T09:13:19.710Z,101604.69
2022-12-03T09:16:23.928Z,101595.41
2022-12-03T09:19:34.774Z,101596.50
2022-12-03T09:22:38.898Z,101594.31
2022-12-03T09:25:52.215Z,101586.03
2022-12-03T09:28:55.824Z,101583.88
2022-12-03T09:32:15.116Z,101588.56
2022-12-03T09:35:26.530Z,101584.72
2022-12-03T09:38:32.597Z,101591.72
2022-12-03T09:41:51.985Z,101579.19
2022-12-03T09:44:57.177Z,101574.44
2022-12-03T09:48:03.906Z,101575.41
2022-12-03T09:51:09.605Z,101572.00
2022-12-03T09:54:24.801Z,101569.19
2022-12-03T09:57:38.385Z,101562.41
2022-12-03T10:00:47.523Z,101560.62
2022-12-03T10:03:51.760Z,101568.44
2022-12-03T10:06:57.720Z,101557.31
2022-12-03T10:10:08.646Z,101555.47
2022-12-03T10:13:37.297Z,101541.87
2022-12-03T10:16:41.575Z,101536.84
2022-12-03T10:20:18.812Z,101534.28
2022-12-03T10:23:28.645Z,101527.28
2022-12-03T10:26:41.826Z,101516.94
2022-12-03T10:29:58.640Z,101515.66
2022-12-03T10:33:18.876Z,101516.66
2022-12-03T10:36:34.845Z,101518.56
2022-12-03T10:40:00.289Z,101511.94
2022-12-03T10:43:20.172Z,101510.34
2022-12-03T10:46:33.079Z,101506.38
2022-12-03T10:49:41.811Z,101501.87
2022-12-03T10:52:49.563Z,101502.56
2022-12-03T10:56:09.472Z,101496.31
2022-12-03T10:59:19.584Z,101493.47
2022-12-03T11:02:29.677Z,101486.28
2022-12-03T11:05:33.874Z,101480.22
2022-12-03T11:08:41.529Z,101479.59
2022-12-03T11:11:48.541Z,101465.56
2022-12-03T11:14:57.969Z,101462.28
2022-12-03T11:18:02.890Z,101458.69
2022-12-03T11:21:09.826Z,101455.03
2022-12-03T11:24:21.015Z,101457.31
2022-12-03T11:27:32.563Z,101449.66
2022-12-03T11:30:51.345Z,101448.94
2022-12-03T11:34:21.559Z,101450.75
2022-12-03T11:37:31.592Z,101447.25
2022-12-03T11:40:39.377Z,101439.28
2022-12-03T11:44:00.450Z,101440.28
2022-12-03T11:47:17.729Z,101432.59
2022-12-03T11:50:57.727Z,101428.81
2022-12-03T11:54:09.498Z,101431.13
2022-12-03T11:57:28.319Z,101415.34
2022-12-03T12:00:35.810Z,101418.62
2022-12-03T12:03:49.047Z,101415.44
2022-12-03T12:07:01.681Z,101407.25
2022-12-03T12:10:42.445Z,101406.25
2022-12-03T12:13:55.554Z,101395.97
2022-12-03T12:17:03.322Z,101401.56
2022-12-03T12:20:23.728Z,101411.94
2022-12-03T12:23:29.617Z,101407.25
2022-12-03T12:26:50.660Z,101406.50
2022-12-03T12:30:13.674Z,101398.63
2022-12-03T12:33:29.372Z,101410.19
2022-12-03T12:36:51.423Z,101403.59
2022-12-03T12:40:03.819Z,101400.91
2022-12-03T12:43:15.530Z,101402.59
2022-12-03T12:46:47.376Z,101403.09
2022-12-03T12:49:58.595Z,101394.44
2022-12-03T12:53:12.788Z,101390.16
2022-12-03T12:56:25.834Z,101393.53
2022-12-03T12:59:36.601Z,101374.09
2022-12-03T13:02:50.752Z,101382.78
2022-12-03T13:06:05.400Z,101382.87
2022-12-03T13:09:31.276Z,101387.84
2022-12-03T13:12:44.708Z,101381.88
2022-12-03T13:16:05.394Z,101382.66
2022-12-03T13:19:22.425Z,101384.16
2022-12-03T13:22:26.100Z,101395.34
2022-12-03T13:25:59.297Z,101397.81
2022-12-03T13:29:07.406Z,101394.44
2022-12-03T13:32:29.395Z,101398.72
2022-12-03T13:35:41.525Z,101395.22
2022-12-03T13:38:50.448Z,101390.84
2022-12-03T13:42:14.630Z,101388.84
2022-12-03T13:45:37.222Z,101390.44
2022-12-03T13:48:43.364Z,101390.34
2022-12-03T13:51:47.444Z,101382.37
2022-12-03T13:54:59.746Z,101403.91
2022-12-03T13:58:10.881Z,101406.19
2022-12-03T14:01:24.024Z,101401.03
2022-12-03T14:04:31.990Z,101398.00
2022-12-03T14:07:47.843Z,101391.69
2022-12-03T14:10:55.569Z,101399.16
2022-12-03T14:14:02.161Z,101400.66
2022-12-03T14:17:07.853Z,101403.94
2022-12-03T14:20:16.505Z,101411.50
2022-12-03T14:23:20.874Z,101404.41
2022-12-03T14:26:30.479Z,101411.09
2022-12-03T14:29:34.991Z,101401.31
2022-12-03T14:32:39.699Z,101415.06
2022-12-03T14:35:45.033Z,101410.28
2022-12-03T14:39:02.635Z,101415.34
2022-12-03T14:42:15.453Z,101412.25
2022-12-03T14:45:28.585Z,101418.69
2022-12-03T14:48:42.002Z,101413.09
2022-12-03T14:51:47.315Z,101411.00
2022-12-03T14:54:57.633Z,101410.66
2022-12-03T14:58:04.582Z,101410.13
2022-12-03T15:01:13.723Z,101415.78
2022-12-03T15:04:23.403Z,101411.28
2022-12-03T15:07:34.776Z,101411.97
2022-12-03T15:10:43.675Z,101416.72
2022-12-03T15:13:48.461Z,101427.66
2022-12-03T15:16:55.219Z,101424.75
2022-12-03T15:20:12.644Z,101424.31
2022-12-03T15:23:22.486Z,101429.38
2022-12-03T15:26:33.496Z,101424.91
2022-12-03T15:29:37.688Z,101423.69
2022-12-03T15:32:56.356Z,101423.34
2022-12-03T15:36:06.202Z,101425.62
2022-12-03T15:39:10.754Z,101421.44
2022-12-03T15:42:23.403Z,101426.97
2022-12-03T15:45:27.540Z,101425.97
2022-12-03T15:48:30.638Z,101430.00
2022-12-03T15:51:34.392Z,101435.06
2022-12-03T15:54:42.477Z,101435.62
2022-12-03T15:57:49.349Z,101434.53
2022-12-03T16:00:52.904Z,101434.19
2022-12-03T16:03:58.086Z,101434.06
2022-12-03T16:07:10.736Z,101438.81
2022-12-03T16:10:26.039Z,101436.56
2022-12-03T16:13:36.624Z,101436.22
2022-12-03T16:16:48.751Z,101433.41
2022-12-03T16:19:56.832Z,101434.09
2022-12-03T16:23:00.180Z,101433.75
2022-12-03T16:26:04.554Z,101431.16
2022-12-03T16:29:15.243Z,101432.75
2022-12-03T16:32:32.417Z,101435.31
2022-12-03T16:35:38.108Z,101435.09
2022-12-03T16:38:43.676Z,101428.38
2022-12-03T16:41:54.448Z,101437.78
2022-12-03T16:45:12.463Z,101437.13
2022-12-03T16:48:23.608Z,101431.62
2022-12-03T16:51:30.398Z,101437.53
2022-12-03T16:54:43.553Z,101431.72
2022-12-03T16:57:46.461Z,101437.78
2022-12-03T17:00:58.166Z,101433.31
2022-12-03T17:04:15.635Z,101435.62
2022-12-03T17:07:22.655Z,101433.72
2022-12-03T17:10:28.736Z,101434.50
2022-12-03T17:13:35.204Z,101429.00
2022-12-03T17:16:52.579Z,101434.38
2022-12-03T17:19:58.582Z,101427.31
2022-12-03T17:23:04.524Z,101431.47
2022-12-03T17:26:15.359Z,101433.03
2022-12-03T17:29:37.535Z,101433.47
2022-12-03T17:32:50.498Z,101433.25
2022-12-03T17:35:58.620Z,101433.81
2022-12-03T17:39:05.674Z,101430.88
2022-12-03T17:42:12.671Z,101437.59
2022-12-03T17:45:17.752Z,101438.81
2022-12-03T17:48:21.463Z,101438.59
2022-12-03T17:51:31.521Z,101439.50
2022-12-03T17:55:08.390Z,101445.22
2022-12-03T17:58:06.045Z,101442.28
2022-12-03T18:01:22.474Z,101439.47
2022-12-03T18:04:33.574Z,101433.97
2022-12-03T18:07:43.671Z,101434.41
2022-12-03T18:10:53.528Z,101435.03
2022-12-03T18:14:11.439Z,101450.50
2022-12-03T18:17:24.448Z,101440.06
2022-12-03T18:20:35.118Z,101440.06
2022-12-03T18:23:51.387Z,101435.56
2022-12-03T18:27:01.855Z,101433.78
2022-12-03T18:30:08.804Z,101434.66
2022-12-03T18:33:16.367Z,101437.03
2022-12-03T18:36:25.477Z,101441.28
2022-12-03T18:39:42.430Z,101441.69
2022-12-03T18:42:49.636Z,101439.91
2022-12-03T18:46:04.591Z,101436.19
2022-12-03T18:49:16.025Z,101435.28
2022-12-03T18:52:22.599Z,101437.63
2022-12-03T18:55:37.409Z,101436.84
2022-12-03T18:58:44.649Z,101428.09
2022-12-03T19:01:49.619Z,101440.44
2022-12-03T19:04:56.489Z,101437.22
2022-12-03T19:08:18.594Z,101435.41
2022-12-03T19:11:30.719Z,101431.16
2022-12-03T19:14:57.313Z,101427.56
2022-12-03T19:18:01.412Z,101433.50
2022-12-03T19:21:09.334Z,101436.06
2022-12-03T19:24:24.291Z,101436.63
2022-12-03T19:27:38.414Z,101439.06
2022-12-03T19:30:46.532Z,101442.56
2022-12-03T19:33:59.627Z,101448.38
2022-12-03T19:37:14.290Z,101453.53
2022-12-03T19:40:25.445Z,101446.47
2022-12-03T19:43:39.311Z,101455.88
2022-12-03T19:46:54.454Z,101454.97
2022-12-03T19:49:59.141Z,101459.34
2022-12-03T19:53:17.568Z,101457.56
2022-12-03T19:56:20.982Z,101460.91
2022-12-03T19:59:39.451Z,101461.69
2022-12-03T20:02:50.460Z,101459.88
2022-12-03T20:06:11.418Z,101470.97
2022-12-03T20:09:18.106Z,101475.34
2022-12-03T20:12:25.393Z,101465.16
2022-12-03T20:15:32.469Z,101461.44
2022-12-03T20:18:37.597Z,101467.03
2022-12-03T20:22:02.540Z,101464.09
2022-12-03T20:25:21.452Z,101466.41
2022-12-03T20:28:30.426Z,101461.03
2022-12-03T20:31:42.508Z,101465.16
2022-12-03T20:34:57.417Z,101462.34
2022-12-03T20:38:01.557Z,101465.16
2022-12-03T20:41:17.305Z,101466.19
2022-12-03T20:44:24.502Z,101460.13
2022-12-03T20:47:37.547Z,101457.44
2022-12-03T20:50:42.232Z,101464.13
2022-12-03T20:53:53.408Z,101462.47
2022-12-03T20:57:11.318Z,101460.00
2022-12-03T21:00:16.371Z,101458.22
2022-12-03T21:03:30.300Z,101446.22
2022-12-03T21:06:42.320Z,101441.97
2022-12-03T21:09:51.653Z,101444.53
2022-12-03T21:12:56.449Z,101444.78
2022-12-03T21:16:07.838Z,101444.00
2022-12-03T21:19:20.492Z,101446.81
2022-12-03T21:22:24.349Z,101446.81
2022-12-03T21:25:31.934Z,101453.00
2022-12-03T21:28:46.444Z,101440.59
2022-12-03T21:31:57.327Z,101432.31
2022-12-03T21:35:00.674Z,101435.91
2022-12-03T21:38:08.623Z,101441.31
2022-12-03T21:41:15.787Z,101437.28
2022-12-03T21:44:27.521Z,101445.91
2022-12-03T21:47:37.458Z,101447.16
2022-12-03T21:50:41.602Z,101442.72
2022-12-03T21:53:46.921Z,101453.94
2022-12-03T21:56:54.299Z,101449.69
2022-12-03T21:59:57.987Z,101444.63
2022-12-03T22:03:02.909Z,101449.00
2022-12-03T22:06:09.446Z,101442.41
2022-12-03T22:09:24.831Z,101442.06
2022-12-03T22:12:32.829Z,101438.34
2022-12-03T22:15:38.881Z,101432.59
2022-12-03T22:18:43.733Z,101439.19
2022-12-03T22:21:47.711Z,101439.75
2022-12-03T22:24:55.387Z,101428.97
2022-12-03T22:28:00.770Z,101434.00
2022-12-03T22:31:09.837Z,101432.75
2022-12-03T22:34:13.156Z,101430.28
2022-12-03T22:37:17.836Z,101433.41
2022-12-03T22:40:21.722Z,101432.50
2022-12-03T22:43:25.557Z,101434.94
2022-12-03T22:46:29.604Z,101437.41
2022-12-03T22:49:33.123Z,101430.22
2022-12-03T22:52:37.872Z,101429.44
2022-12-03T22:55:42.705Z,101429.63
2022-12-03T22:58:47.078Z,101425.12
2022-12-03T23:01:51.825Z,101418.78
2022-12-03T23:04:57.499Z,101417.53
2022-12-03T23:08:00.711Z,101420.66
2022-12-03T23:11:05.890Z,101422.22
2022-12-03T23:14:08.980Z,101424.00
2022-12-03T23:17:11.622Z,101421.72
2022-12-03T23:20:15.049Z,101422.75
2022-12-03T23:23:26.192Z,101415.91
2022-12-03T23:26:29.912Z,101414.91
2022-12-03T23:29:36.258Z,101412.84
2022-12-03T23:32:42.598Z,101403.22
2022-12-03T23:35:55.563Z,101398.06
2022-12-03T23:39:00.801Z,101397.56
2022-12-03T23:42:04.477Z,101410.44
2022-12-03T23:45:08.021Z,101409.53
2022-12-03T23:48:11.439Z,101411.09
2022-12-03T23:51:17.493Z,101419.97
2022-12-03T23:54:20.010Z,101409.78
2022-12-03T23:57:23.023Z,101405.28
